Time;durP1;ratioP1;P1;durP2;ratioP2;P2;SDS_P1;SDS_P2;PMS_P1;PMS_P2;Temp;Humidity;BMP_temperature;BMP_pressure;BME280_temperature;BME280_humidity;BME280_pressure;Samples;Min_cycle;Max_cycle;Signal;HPM_P1;HPM_P2
2023/01/23 00:02:02;;;;;;;;;;;;;;;3.13;100.00;101414.44;5073491;28;19926;-60
2023/01/23 00:04:27;;;;;;;;;;;;;;;3.11;100.00;101407.41;5088148;28;19935;-60
2023/01/23 00:06:54;;;;;;;;;;;;;;;3.14;100.00;101407.47;5094594;28;19927;-60
2023/01/23 00:09:19;;;;;;;;;;;;;;;3.07;100.00;101414.34;5091431;28;19940;-60
2023/01/23 00:11:44;;;;;;;;;;;;;;;3.05;100.00;101415.19;5093860;28;19928;-59
2023/01/23 00:14:10;;;;;;;;;;;;;;;3.00;100.00;101407.19;5087963;28;20030;-60
2023/01/23 00:16:35;;;;;;;;;;;;;;;2.97;100.00;101412.38;5074463;28;20010;-59
2023/01/23 00:19:01;;;;;;;;;;;;;;;2.95;100.00;101407.97;5091849;28;19990;-60
2023/01/23 00:21:27;;;;;;;;;;;;;;;2.95;100.00;101410.59;5077100;28;19971;-59
2023/01/23 00:23:53;;;;;;;;;;;;;;;2.96;100.00;101412.38;5076187;28;19940;-60
2023/01/23 00:26:20;;;;;;;;;;;;;;;2.93;100.00;101413.19;5074051;28;19933;-60
2023/01/23 00:28:46;;;;;;;;;;;;;;;2.91;100.00;101406.13;5073036;28;19925;-59
2023/01/23 00:31:12;;;;;;;;;;;;;;;2.88;100.00;101398.19;5090340;28;19985;-59
2023/01/23 00:33:41;;;;;;;;;;;;;;;2.89;100.00;101397.31;5091585;28;20006;-60
2023/01/23 00:36:07;;;;;;;;;;;;;;;2.93;100.00;101396.53;5093765;28;19941;-59
2023/01/23 00:38:32;;;;;;;;;;;;;;;2.95;100.00;101392.22;5076381;28;19959;-60
2023/01/23 00:40:58;;;;;;;;;;;;;;;2.90;100.00;101399.09;5084838;28;19973;-60
2023/01/23 00:43:24;;;;;;;;;;;;;;;2.90;100.00;101393.84;5085731;28;19949;-59
2023/01/23 00:45:49;;;;;;;;;;;;;;;2.97;100.00;101398.34;5085465;28;20311;-59
2023/01/23 00:48:15;;;;;;;;;;;;;;;2.96;100.00;101393.97;5093787;28;19930;-59
2023/01/23 00:50:40;;;;;;;;;;;;;;;2.98;100.00;101392.25;5093605;28;19956;-59
2023/01/23 00:53:05;;;;;;;;;;;;;;;2.95;100.00;101398.31;5089878;28;20309;-60
2023/01/23 00:55:31;;;;;;;;;;;;;;;2.96;100.00;101402.75;5093290;28;19937;-59
2023/01/23 00:57:56;;;;;;;;;;;;;;;3.00;100.00;101403.69;5088813;28;19939;-60
2023/01/23 01:00:21;;;;;;;;;;;;;;;2.99;100.00;101415.03;5073360;28;20375;-60
2023/01/23 01:02:47;;;;;;;;;;;;;;;2.98;100.00;101413.28;5075560;28;19933;-60
2023/01/23 01:05:12;;;;;;;;;;;;;;;2.99;100.00;101420.31;5093479;28;20364;-59
2023/01/23 01:07:37;;;;;;;;;;;;;;;2.97;100.00;101417.66;5093437;28;19926;-59
2023/01/23 01:10:03;;;;;;;;;;;;;;;2.99;100.00;101420.31;5092999;28;20027;-60
2023/01/23 01:12:28;;;;;;;;;;;;;;;3.02;100.00;101415.09;5082701;28;20400;-60
2023/01/23 01:14:53;;;;;;;;;;;;;;;3.08;100.00;101412.63;5072971;28;19946;-59
2023/01/23 01:17:18;;;;;;;;;;;;;;;3.09;100.00;101417.91;5075603;28;20453;-60
2023/01/23 01:19:44;;;;;;;;;;;;;;;3.09;100.00;101407.38;5072841;28;19939;-60
2023/01/23 01:22:09;;;;;;;;;;;;;;;3.13;100.00;101413.59;5072840;28;20449;-60
2023/01/23 01:24:34;;;;;;;;;;;;;;;3.13;100.00;101417.09;5072659;28;19990;-59
2023/01/23 01:26:59;;;;;;;;;;;;;;;3.08;100.00;101412.63;5075415;28;19947;-60
2023/01/23 01:29:25;;;;;;;;;;;;;;;3.08;100.00;101425.75;5072592;28;19932;-59
2023/01/23 01:31:50;;;;;;;;;;;;;;;3.11;100.00;101420.56;5078577;28;20380;-59
2023/01/23 01:34:15;;;;;;;;;;;;;;;3.14;100.00;101415.34;5092837;28;19958;-60
2023/01/23 01:36:40;;;;;;;;;;;;;;;3.22;100.00;101412.03;5092851;28;20402;-60
2023/01/23 01:39:06;;;;;;;;;;;;;;;3.25;100.00;101419.97;5077040;28;19944;-60
2023/01/23 01:41:31;;;;;;;;;;;;;;;3.17;100.00;101420.66;5088212;28;19940;-59
2023/01/23 01:43:58;;;;;;;;;;;;;;;3.18;100.00;101419.81;5087605;28;19944;-59
2023/01/23 01:46:24;;;;;;;;;;;;;;;3.20;100.00;101423.34;5072547;28;20263;-59
2023/01/23 01:48:58;;;;;;;;;;;;;;;3.25;100.00;101426.94;5072087;28;19934;-60
2023/01/23 01:51:27;;;;;;;;;;;;;;;3.24;100.00;101422.56;5080434;28;19957;-60
2023/01/23 01:54:08;;;;;;;;;;;;;;;3.28;100.00;101425.28;5092320;28;20406;-60
2023/01/23 01:56:38;;;;;;;;;;;;;;;3.26;100.00;101423.47;5090734;28;20021;-59
2023/01/23 01:59:04;;;;;;;;;;;;;;;3.04;100.00;101381.84;5072179;28;19935;-59
2023/01/23 02:01:30;;;;;;;;;;;;;;;3.33;100.00;101430.59;5072429;28;20280;-59
2023/01/23 02:03:55;;;;;;;;;;;;;;;3.34;100.00;101440.28;5083524;28;19939;-59
2023/01/23 02:06:21;;;;;;;;;;;;;;;3.35;100.00;101436.78;5091364;28;19946;-59
2023/01/23 02:08:53;;;;;;;;;;;;;;;3.36;100.00;101434.19;5092120;28;19928;-59
2023/01/23 02:11:19;;;;;;;;;;;;;;;3.40;100.00;101440.41;5092372;28;20482;-59
2023/01/23 02:13:44;;;;;;;;;;;;;;;3.38;100.00;101431.56;5074642;28;19966;-59
2023/01/23 02:16:22;;;;;;;;;;;;;;;3.40;100.00;101441.28;5072515;28;19949;-59
2023/01/23 02:18:48;;;;;;;;;;;;;;;3.37;100.00;101440.34;5091896;28;19928;-59
2023/01/23 02:21:15;;;;;;;;;;;;;;;3.41;100.00;101448.31;5089215;28;19934;-59
2023/01/23 02:23:56;;;;;;;;;;;;;;;3.39;100.00;101446.53;5071748;28;20434;-59
2023/01/23 02:26:40;;;;;;;;;;;;;;;3.45;100.00;101454.50;5084184;28;20016;-59
2023/01/23 02:29:06;;;;;;;;;;;;;;;3.40;100.00;101453.53;5091804;28;19930;-60
2023/01/23 02:31:31;;;;;;;;;;;;;;;3.37;100.00;101456.13;5080360;28;19960;-59
2023/01/23 02:33:57;;;;;;;;;;;;;;;3.37;100.00;101445.59;5071384;28;20319;-59
2023/01/23 02:36:25;;;;;;;;;;;;;;;3.35;100.00;101447.31;5071489;28;20404;-59
2023/01/23 02:38:57;;;;;;;;;;;;;;;3.31;100.00;101453.38;5071562;28;20063;-60
2023/01/23 02:41:26;;;;;;;;;;;;;;;3.23;100.00;101452.34;5056043;28;19932;-59
2023/01/23 02:43:52;;;;;;;;;;;;;;;3.16;100.00;101455.69;5077771;28;20018;-59
2023/01/23 02:46:19;;;;;;;;;;;;;;;3.15;100.00;101449.56;5083873;28;20485;-59
2023/01/23 02:48:46;;;;;;;;;;;;;;;3.14;100.00;101457.41;5071301;28;20310;-59
2023/01/23 02:51:11;;;;;;;;;;;;;;;3.13;100.00;101453.03;5086693;28;19992;-59
2023/01/23 02:53:37;;;;;;;;;;;;;;;3.09;100.00;101453.81;5091405;28;20413;-60
2023/01/23 02:56:02;;;;;;;;;;;;;;;3.04;100.00;101450.19;5079494;28;19941;-59
2023/01/23 03:01:11;;;;;;;;;;;;;;;3.00;100.00;101445.75;5073730;28;20406;-59
2023/01/23 03:03:36;;;;;;;;;;;;;;;2.99;100.00;101441.31;5077918;28;19934;-59
2023/01/23 03:06:02;;;;;;;;;;;;;;;2.99;100.00;101430.81;5091159;28;19957;-59
2023/01/23 03:08:33;;;;;;;;;;;;;;;2.99;100.00;101442.22;5074207;28;20030;-59
2023/01/23 03:10:58;;;;;;;;;;;;;;;2.99;100.00;101444.84;5082585;28;20346;-59
2023/01/23 03:13:24;;;;;;;;;;;;;;;3.00;100.00;101443.97;5082708;28;19989;-59
2023/01/23 03:15:51;;;;;;;;;;;;;;;3.05;100.00;101449.34;5082930;28;19935;-59
2023/01/23 03:18:17;;;;;;;;;;;;;;;3.11;100.00;101442.47;5090194;28;20009;-59
2023/01/23 03:20:42;;;;;;;;;;;;;;;3.12;100.00;101451.22;5073329;28;20027;-59
2023/01/23 03:23:07;;;;;;;;;;;;;;;3.18;100.00;101448.75;5070937;28;19940;-59
2023/01/23 03:25:33;;;;;;;;;;;;;;;3.22;100.00;101448.81;5070973;28;19972;-59
2023/01/23 03:27:58;;;;;;;;;;;;;;;3.24;100.00;101448.84;5076931;28;20319;-59
2023/01/23 03:30:24;;;;;;;;;;;;;;;3.28;100.00;101448.94;5071034;28;19985;-59
2023/01/23 03:32:50;;;;;;;;;;;;;;;3.27;100.00;101449.81;5070856;28;19983;-59
2023/01/23 03:35:15;;;;;;;;;;;;;;;3.32;100.00;101444.63;5073340;28;19936;-59
2023/01/23 03:37:41;;;;;;;;;;;;;;;3.31;100.00;101434.97;5071134;28;19935;-59
2023/01/23 03:42:54;;;;;;;;;;;;;;;3.28;100.00;101435.78;5091198;28;19953;-59
2023/01/23 03:45:19;;;;;;;;;;;;;;;3.28;100.00;101442.81;5090949;28;20393;-59
2023/01/23 03:47:44;;;;;;;;;;;;;;;3.16;100.00;101446.09;5089373;28;19940;-59
2023/01/23 03:50:10;;;;;;;;;;;;;;;3.15;100.00;101444.28;5088864;28;20049;-59
2023/01/23 03:52:36;;;;;;;;;;;;;;;3.19;100.00;101435.63;5090732;28;20306;-59
2023/01/23 03:55:02;;;;;;;;;;;;;;;3.14;100.00;101425.88;5090934;28;20034;-59
2023/01/23 03:57:27;;;;;;;;;;;;;;;3.10;100.00;101414.41;5086599;28;20038;-59
2023/01/23 03:59:52;;;;;;;;;;;;;;;3.09;100.00;101417.00;5070685;28;19926;-59
2023/01/23 04:02:18;;;;;;;;;;;;;;;3.08;100.00;101415.25;5071419;28;20610;-59
2023/01/23 04:04:43;;;;;;;;;;;;;;;3.03;100.00;101414.25;5092119;28;20013;-59
2023/01/23 04:07:08;;;;;;;;;;;;;;;2.98;100.00;101423.78;5094632;28;19978;-59
2023/01/23 04:09:33;;;;;;;;;;;;;;;2.94;100.00;101432.47;5084631;28;19970;-59
2023/01/23 04:11:59;;;;;;;;;;;;;;;2.90;100.00;101436.75;5093437;28;19930;-59
2023/01/23 04:14:25;;;;;;;;;;;;;;;2.83;100.00;101437.50;5094244;28;20057;-59
2023/01/23 04:16:51;;;;;;;;;;;;;;;2.86;100.00;101450.72;5094367;28;20073;-59
2023/01/23 04:19:19;;;;;;;;;;;;;;;2.86;100.00;101441.94;5080805;28;20032;-59
2023/01/23 04:21:45;;;;;;;;;;;;;;;2.91;100.00;101442.91;5073733;28;20117;-59
2023/01/23 04:24:10;;;;;;;;;;;;;;;2.94;100.00;101441.25;5085495;28;20045;-59
2023/01/23 04:26:36;;;;;;;;;;;;;;;2.95;100.00;101440.38;5094179;28;20009;-58
2023/01/23 04:29:02;;;;;;;;;;;;;;;3.05;100.00;101451.97;5092265;28;19932;-58
2023/01/23 04:31:27;;;;;;;;;;;;;;;3.07;100.00;101447.63;5092126;28;19975;-58
2023/01/23 04:33:53;;;;;;;;;;;;;;;3.01;100.00;101451.03;5094061;28;20033;-58
2023/01/23 04:36:18;;;;;;;;;;;;;;;3.10;100.00;101459.09;5077847;28;20385;-58
2023/01/23 04:38:43;;;;;;;;;;;;;;;3.15;100.00;101457.44;5073526;28;19934;-58
2023/01/23 04:41:21;;;;;;;;;;;;;;;3.16;100.00;101456.59;5082013;28;20021;-59
2023/01/23 04:43:46;;;;;;;;;;;;;;;3.17;100.00;101463.63;5093003;28;19936;-58
2023/01/23 04:46:11;;;;;;;;;;;;;;;3.21;100.00;101467.19;5092668;28;19977;-59
2023/01/23 04:48:37;;;;;;;;;;;;;;;3.23;100.00;101463.72;5092921;28;20471;-59
2023/01/23 04:51:02;;;;;;;;;;;;;;;3.23;100.00;101465.50;5088911;28;19963;-58
2023/01/23 04:53:27;;;;;;;;;;;;;;;3.27;100.00;101469.94;5092551;28;20702;-59
2023/01/23 04:55:53;;;;;;;;;;;;;;;3.30;100.00;101476.16;5093069;28;19949;-59
2023/01/23 04:58:18;;;;;;;;;;;;;;;3.35;100.00;101469.25;5091357;28;19958;-59
2023/01/23 05:00:44;;;;;;;;;;;;;;;3.35;100.00;101473.59;5074852;28;19939;-59
2023/01/23 05:03:09;;;;;;;;;;;;;;;3.32;100.00;101476.19;5076614;28;19957;-59
2023/01/23 05:05:34;;;;;;;;;;;;;;;3.47;100.00;101471.22;5093425;28;20416;-59
2023/01/23 05:08:00;;;;;;;;;;;;;;;3.47;100.00;101469.47;5089465;28;19939;-59
2023/01/23 05:10:25;;;;;;;;;;;;;;;3.49;100.00;101472.13;5079681;28;19941;-59
2023/01/23 05:12:50;;;;;;;;;;;;;;;3.49;100.00;101461.63;5093169;28;19931;-59
2023/01/23 05:15:16;;;;;;;;;;;;;;;3.49;100.00;101465.13;5078335;28;19940;-59
2023/01/23 05:17:41;;;;;;;;;;;;;;;3.50;100.00;101472.16;5073105;28;19955;-59
2023/01/23 05:20:07;;;;;;;;;;;;;;;3.55;100.00;101462.63;5075390;28;20424;-59
2023/01/23 05:22:32;;;;;;;;;;;;;;;3.59;100.00;101466.19;5072806;28;19930;-59
2023/01/23 05:24:58;;;;;;;;;;;;;;;3.62;100.00;101463.63;5073063;28;19940;-59
2023/01/23 05:27:23;;;;;;;;;;;;;;;3.63;100.00;101460.13;5089567;28;19938;-59
2023/01/23 05:29:48;;;;;;;;;;;;;;;3.65;100.00;101466.31;5092852;28;19931;-59
2023/01/23 05:32:13;;;;;;;;;;;;;;;3.55;100.00;101472.25;5085762;28;20413;-59
2023/01/23 05:34:39;;;;;;;;;;;;;;;3.53;100.00;101474.84;5072620;28;19950;-59
2023/01/23 05:37:04;;;;;;;;;;;;;;;3.62;100.00;101479.41;5072772;28;20022;-59
2023/01/23 05:39:32;;;;;;;;;;;;;;;3.56;100.00;101479.25;5075089;28;19934;-59
2023/01/23 05:41:57;;;;;;;;;;;;;;;3.55;100.00;101478.41;5091889;28;19935;-59
2023/01/23 05:44:23;;;;;;;;;;;;;;;3.56;100.00;101484.53;5092704;28;19979;-59
2023/01/23 05:46:48;;;;;;;;;;;;;;;3.56;100.00;101481.91;5090657;28;19935;-59
2023/01/23 05:49:13;;;;;;;;;;;;;;;3.50;100.00;101479.16;5073210;28;20387;-59
2023/01/23 05:51:39;;;;;;;;;;;;;;;3.52;100.00;101482.72;5072273;28;19961;-59
2023/01/23 05:54:04;;;;;;;;;;;;;;;3.57;100.00;101481.06;5089877;28;20369;-59
2023/01/23 05:56:29;;;;;;;;;;;;;;;3.60;100.00;101483.75;5092226;28;19932;-59
2023/01/23 05:58:54;;;;;;;;;;;;;;;3.49;100.00;101483.53;5087924;28;19934;-59
2023/01/23 06:01:20;;;;;;;;;;;;;;;3.53;100.00;101480.09;5074692;28;20387;-59
2023/01/23 06:03:46;;;;;;;;;;;;;;;3.53;100.00;101495.00;5084812;28;19998;-59
2023/01/23 06:06:11;;;;;;;;;;;;;;;3.49;100.00;101488.78;5091504;28;19942;-59
2023/01/23 06:08:36;;;;;;;;;;;;;;;3.46;100.00;101487.88;5074317;28;19934;-59
2023/01/23 06:11:02;;;;;;;;;;;;;;;3.46;100.00;101487.88;5083557;28;19930;-59
2023/01/23 06:13:28;;;;;;;;;;;;;;;3.49;100.00;101483.53;5082961;28;20351;-59
2023/01/23 06:15:53;;;;;;;;;;;;;;;3.51;100.00;101483.59;5071741;28;20345;-59
2023/01/23 06:18:19;;;;;;;;;;;;;;;3.53;100.00;101479.22;5071957;28;19931;-59
2023/01/23 06:20:45;;;;;;;;;;;;;;;3.50;100.00;101476.53;5071724;28;19935;-59
2023/01/23 06:23:10;;;;;;;;;;;;;;;3.50;100.00;101473.91;5074184;28;19942;-59
2023/01/23 06:25:36;;;;;;;;;;;;;;;3.48;100.00;101475.59;5090616;28;19966;-59
2023/01/23 06:28:02;;;;;;;;;;;;;;;3.49;100.00;101477.41;5091589;28;19998;-59
2023/01/23 06:30:27;;;;;;;;;;;;;;;3.48;100.00;101480.88;5091180;28;19972;-59
2023/01/23 06:32:52;;;;;;;;;;;;;;;3.44;100.00;101479.91;5074305;28;19934;-59
2023/01/23 06:35:18;;;;;;;;;;;;;;;3.42;100.00;101484.28;5069855;28;19932;-58
2023/01/23 06:37:43;;;;;;;;;;;;;;;3.41;100.00;101494.78;5069926;28;20458;-58
2023/01/23 06:40:12;;;;;;;;;;;;;;;3.41;100.00;101495.66;5072176;28;19939;-59
2023/01/23 06:42:37;;;;;;;;;;;;;;;3.43;100.00;101506.19;5089855;28;19937;-58
2023/01/23 06:45:03;;;;;;;;;;;;;;;3.49;100.00;101503.69;5091175;28;20448;-58
2023/01/23 06:47:28;;;;;;;;;;;;;;;3.47;100.00;101500.16;5090839;28;19961;-59
2023/01/23 06:49:53;;;;;;;;;;;;;;;3.47;100.00;101505.41;5088219;28;20440;-59
2023/01/23 06:52:18;;;;;;;;;;;;;;;3.49;100.00;101508.97;5090785;28;19934;-58
2023/01/23 06:54:44;;;;;;;;;;;;;;;3.47;100.00;101511.56;5091708;28;19955;-59
2023/01/23 06:57:09;;;;;;;;;;;;;;;3.47;100.00;101513.28;5076685;28;19947;-59
2023/01/23 06:59:35;;;;;;;;;;;;;;;3.54;100.00;101518.69;5071435;28;20310;-59
2023/01/23 07:02:00;;;;;;;;;;;;;;;3.54;100.00;101523.09;5071211;28;20016;-59
2023/01/23 07:04:25;;;;;;;;;;;;;;;3.54;100.00;101517.84;5084411;28;19934;-59
2023/01/23 07:06:51;;;;;;;;;;;;;;;3.59;100.00;101526.69;5073733;28;19936;-59
2023/01/23 07:09:16;;;;;;;;;;;;;;;3.60;100.00;101538.97;5071351;28;20022;-58
2023/01/23 07:11:41;;;;;;;;;;;;;;;3.59;100.00;101537.22;5083639;28;19938;-59
2023/01/23 07:14:06;;;;;;;;;;;;;;;3.55;100.00;101546.78;5081756;28;20055;-59
2023/01/23 07:16:33;;;;;;;;;;;;;;;3.55;100.00;101545.91;5071171;28;19982;-59
2023/01/23 07:19:00;;;;;;;;;;;;;;;3.54;100.00;101528.34;5072244;28;19935;-59
2023/01/23 07:21:25;;;;;;;;;;;;;;;3.61;100.00;101543.38;5090989;28;20355;-59
2023/01/23 07:23:51;;;;;;;;;;;;;;;3.58;100.00;101543.31;5077462;28;19937;-59
2023/01/23 07:26:16;;;;;;;;;;;;;;;3.55;100.00;101551.16;5071034;28;19944;-58
2023/01/23 07:28:42;;;;;;;;;;;;;;;3.57;100.00;101552.97;5071017;28;19985;-59
2023/01/23 07:31:07;;;;;;;;;;;;;;;3.55;100.00;101556.41;5069485;28;20379;-58
2023/01/23 07:33:33;;;;;;;;;;;;;;;3.55;100.00;101552.06;5070957;28;19956;-58
2023/01/23 07:35:58;;;;;;;;;;;;;;;3.51;100.00;101546.72;5068462;28;20077;-58
2023/01/23 07:38:24;;;;;;;;;;;;;;;3.53;100.00;101547.59;5080117;28;20106;-59
2023/01/23 07:40:50;;;;;;;;;;;;;;;3.54;100.00;101545.00;5094576;28;19936;-59
2023/01/23 07:43:15;;;;;;;;;;;;;;;3.51;100.00;101547.56;5094389;28;19940;-59
2023/01/23 07:45:40;;;;;;;;;;;;;;;3.54;100.00;101549.41;5094368;28;19936;-58
2023/01/23 07:48:06;;;;;;;;;;;;;;;3.59;100.00;101553.00;5081846;28;20305;-58
2023/01/23 07:50:31;;;;;;;;;;;;;;;3.60;100.00;101546.88;5073790;28;19962;-59
2023/01/23 07:52:57;;;;;;;;;;;;;;;3.57;100.00;101549.44;5089278;28;19930;-59
2023/01/23 07:55:22;;;;;;;;;;;;;;;3.58;100.00;101549.47;5093795;28;19964;-59
2023/01/23 07:57:47;;;;;;;;;;;;;;;3.61;100.00;101556.53;5078466;28;19938;-59
2023/01/23 08:00:13;;;;;;;;;;;;;;;3.58;100.00;101557.38;5074465;28;19983;-58
2023/01/23 08:02:38;;;;;;;;;;;;;;;3.65;100.00;101558.38;5074297;28;19978;-59
2023/01/23 08:05:04;;;;;;;;;;;;;;;3.70;100.00;101559.34;5091724;28;19950;-58
2023/01/23 08:07:29;;;;;;;;;;;;;;;3.67;100.00;101559.31;5076296;28;19936;-59
2023/01/23 08:09:55;;;;;;;;;;;;;;;3.69;100.00;101549.69;5076279;28;19931;-58
2023/01/23 08:12:20;;;;;;;;;;;;;;;3.73;100.00;101557.69;5094466;28;20055;-58
2023/01/23 08:14:46;;;;;;;;;;;;;;;3.72;100.00;101544.50;5079643;28;19957;-59
2023/01/23 08:17:11;;;;;;;;;;;;;;;3.83;100.00;101549.09;5093271;28;20029;-59
2023/01/23 08:19:37;;;;;;;;;;;;;;;3.90;100.00;101552.75;5094188;28;20030;-58
2023/01/23 08:22:02;;;;;;;;;;;;;;;3.92;100.00;101546.63;5093744;28;20151;-58
2023/01/23 08:24:27;;;;;;;;;;;;;;;3.84;100.00;101539.44;5076590;28;19974;-59
2023/01/23 08:26:52;;;;;;;;;;;;;;;3.89;100.00;101548.31;5073788;28;19937;-59
2023/01/23 08:29:18;;;;;;;;;;;;;;;3.86;100.00;101538.63;5073931;28;19932;-59
2023/01/23 08:31:43;;;;;;;;;;;;;;;3.90;100.00;101539.56;5075883;28;19982;-59
2023/01/23 08:34:08;;;;;;;;;;;;;;;3.98;100.00;101540.59;5084844;28;20008;-59
2023/01/23 08:36:34;;;;;;;;;;;;;;;3.89;100.00;101545.69;5094323;28;19941;-59
2023/01/23 08:38:59;;;;;;;;;;;;;;;3.90;100.00;101545.69;5080308;28;20026;-59
2023/01/23 08:41:25;;;;;;;;;;;;;;;3.98;100.00;101549.38;5088066;28;20428;-59
2023/01/23 08:43:50;;;;;;;;;;;;;;;4.08;100.00;101551.31;5093779;28;19964;-58
2023/01/23 08:46:15;;;;;;;;;;;;;;;4.08;100.00;101546.03;5093986;28;19931;-59
2023/01/23 08:48:40;;;;;;;;;;;;;;;4.12;100.00;101552.25;5076172;28;19938;-59
2023/01/23 08:51:07;;;;;;;;;;;;;;;4.19;100.00;101548.88;5073525;28;19962;-58
2023/01/23 08:53:33;;;;;;;;;;;;;;;4.27;99.99;101542.00;5089495;28;19949;-59
2023/01/23 08:56:03;;;;;;;;;;;;;;;4.40;100.00;101543.97;5093691;28;20069;-58
2023/01/23 08:58:28;;;;;;;;;;;;;;;4.41;99.30;101540.50;5091258;28;19939;-59
2023/01/23 09:00:54;;;;;;;;;;;;;;;4.34;98.77;101549.13;5076627;28;20549;-59
2023/01/23 09:03:19;;;;;;;;;;;;;;;4.39;98.52;101544.84;5077688;28;20068;-59
2023/01/23 09:05:44;;;;;;;;;;;;;;;4.48;98.00;101552.88;5093557;28;20038;-59
2023/01/23 09:08:10;;;;;;;;;;;;;;;4.49;97.56;101551.13;5093198;28;19935;-59
2023/01/23 09:10:35;;;;;;;;;;;;;;;4.52;97.14;101554.72;5070676;28;19982;-58
2023/01/23 09:13:00;;;;;;;;;;;;;;;4.68;96.88;101556.72;5093143;28;19989;-59
2023/01/23 09:15:26;;;;;;;;;;;;;;;4.68;95.92;101551.44;5091184;28;19941;-59
2023/01/23 09:17:51;;;;;;;;;;;;;;;4.86;95.83;101553.50;5074314;28;19930;-58
2023/01/23 09:20:16;;;;;;;;;;;;;;;4.78;94.71;101557.75;5073135;28;19960;-58
2023/01/23 09:22:43;;;;;;;;;;;;;;;4.58;94.25;101556.56;5072961;28;19933;-58
2023/01/23 09:25:08;;;;;;;;;;;;;;;4.54;94.61;101558.25;5075850;28;19936;-59
2023/01/23 09:27:33;;;;;;;;;;;;;;;4.59;94.64;101561.84;5092968;28;19953;-59
2023/01/23 09:29:59;;;;;;;;;;;;;;;4.51;94.97;101555.59;5092639;28;19926;-58
2023/01/23 09:32:24;;;;;;;;;;;;;;;4.51;95.54;101558.22;5076052;28;19976;-59
2023/01/23 09:34:49;;;;;;;;;;;;;;;4.61;95.11;101557.47;5072558;28;19990;-58
2023/01/23 09:37:15;;;;;;;;;;;;;;;4.68;94.90;101556.72;5072975;28;19985;-58
2023/01/23 09:39:41;;;;;;;;;;;;;;;4.68;94.86;101567.25;5073703;28;19986;-58
2023/01/23 09:42:13;;;;;;;;;;;;;;;4.77;95.41;101561.25;5074218;28;20024;-58
2023/01/23 09:44:41;;;;;;;;;;;;;;;4.85;93.92;101570.16;5072428;28;19932;-59
2023/01/23 09:47:10;;;;;;;;;;;;;;;4.79;93.90;101568.34;5074718;28;20025;-59
2023/01/23 09:49:36;;;;;;;;;;;;;;;4.87;93.70;101564.06;5086221;28;20036;-59
2023/01/23 09:52:06;;;;;;;;;;;;;;;4.87;93.90;101553.50;5087183;28;20015;-58
2023/01/23 09:54:32;;;;;;;;;;;;;;;4.80;93.25;101556.91;5072518;28;19998;-59
2023/01/23 09:57:03;;;;;;;;;;;;;;;4.71;93.94;101551.50;5071818;28;20282;-59
2023/01/23 09:59:28;;;;;;;;;;;;;;;4.80;93.49;101543.72;5084245;28;19937;-59
2023/01/23 10:01:53;;;;;;;;;;;;;;;4.80;94.29;101551.66;5081004;28;19982;-58
2023/01/23 10:04:19;;;;;;;;;;;;;;;4.77;94.14;101546.34;5090872;28;20026;-59
2023/01/23 10:07:02;;;;;;;;;;;;;;;4.81;94.15;101542.00;5075015;28;19938;-60
2023/01/23 10:09:33;;;;;;;;;;;;;;;4.92;94.08;101530.75;5092323;28;20007;-58
2023/01/23 10:12:25;;;;;;;;;;;;;;;4.92;94.08;101541.28;5088694;28;20349;-58
2023/01/23 10:14:50;;;;;;;;;;;;;;;4.96;93.22;101543.09;5052714;28;20042;-58
2023/01/23 10:17:32;;;;;;;;;;;;;;;4.86;93.80;101543.81;5084667;28;20016;-58
2023/01/23 10:20:16;;;;;;;;;;;;;;;4.82;93.57;101549.03;5088946;28;19941;-58
2023/01/23 10:23:05;;;;;;;;;;;;;;;4.79;92.92;101549.00;5092089;28;19927;-58
2023/01/23 10:25:34;;;;;;;;;;;;;;;4.80;93.59;101550.75;5076637;28;19938;-58
2023/01/23 10:28:12;;;;;;;;;;;;;;;5.02;93.73;101548.47;5091765;28;19940;-58
2023/01/23 10:30:40;;;;;;;;;;;;;;;5.08;93.87;101548.53;5091758;28;19929;-58
2023/01/23 10:33:11;;;;;;;;;;;;;;;5.00;93.78;101550.19;5069783;28;19939;-58
2023/01/23 10:35:46;;;;;;;;;;;;;;;5.02;93.00;101553.75;5071656;28;20601;-58
2023/01/23 10:38:32;;;;;;;;;;;;;;;5.06;92.21;101559.91;5074013;28;19962;-58
2023/01/23 10:41:20;;;;;;;;;;;;;;;5.15;92.61;101555.69;5080540;28;19996;-58
2023/01/23 10:43:44;;;;;;;;;;;;;;;5.27;92.90;101557.59;5091016;28;19940;-58
2023/01/23 10:46:11;;;;;;;;;;;;;;;5.39;93.04;101560.38;5091193;28;19932;-58
2023/01/23 10:48:40;;;;;;;;;;;;;;;5.34;91.95;101557.69;5091472;28;19941;-58
2023/01/23 10:51:44;;;;;;;;;;;;;;;5.30;91.85;101558.50;5073693;28;20072;-58
2023/01/23 10:54:17;;;;;;;;;;;;;;;5.27;91.86;101555.81;4989621;28;20777;-58
2023/01/23 10:56:57;;;;;;;;;;;;;;;5.19;91.10;101553.94;4989476;28;19936;-58
2023/01/23 10:59:27;;;;;;;;;;;;;;;5.25;91.72;101562.81;5045405;28;19986;-58
2023/01/23 11:02:00;;;;;;;;;;;;;;;5.18;91.75;101554.81;5084595;28;20025;-59
2023/01/23 11:04:27;;;;;;;;;;;;;;;5.21;91.44;101550.47;5091076;28;19938;-58
2023/01/23 11:07:04;;;;;;;;;;;;;;;5.18;91.97;101554.81;5079255;28;20620;-58
2023/01/23 11:09:30;;;;;;;;;;;;;;;5.24;92.08;101561.06;5071377;28;20400;-58
2023/01/23 11:12:02;;;;;;;;;;;;;;;5.08;90.32;101569.63;5091925;28;19942;-58
2023/01/23 11:14:28;;;;;;;;;;;;;;;5.12;91.51;101554.75;5094317;28;19953;-58
2023/01/23 11:17:10;;;;;;;;;;;;;;;5.12;91.52;101550.34;5076981;28;19941;-58
2023/01/23 11:19:35;;;;;;;;;;;;;;;5.08;91.72;101550.28;5083557;28;19984;-58
2023/01/23 11:22:02;;;;;;;;;;;;;;;5.18;91.36;101549.56;5090490;28;20408;-58
2023/01/23 11:24:32;;;;;;;;;;;;;;;5.08;91.20;101543.28;5074436;28;20045;-58
2023/01/23 11:27:25;;;;;;;;;;;;;;;5.13;91.40;101546.84;5074319;28;19928;-58
2023/01/23 11:30:05;;;;;;;;;;;;;;;5.20;91.25;101543.44;5089822;28;19941;-58
2023/01/23 11:32:33;;;;;;;;;;;;;;;5.14;91.19;101548.63;5094790;28;20663;-59
2023/01/23 11:35:09;;;;;;;;;;;;;;;5.11;89.96;101552.97;5082290;28;19954;-58
2023/01/23 11:37:36;;;;;;;;;;;;;;;5.06;90.69;101555.53;5074960;28;19976;-58
2023/01/23 11:40:06;;;;;;;;;;;;;;;5.05;90.62;101551.16;5078422;28;19934;-58
2023/01/23 11:42:33;;;;;;;;;;;;;;;4.99;91.15;101558.94;5074565;28;20036;-59
2023/01/23 11:44:58;;;;;;;;;;;;;;;4.98;91.16;101557.19;5094093;28;20416;-58
2023/01/23 11:47:33;;;;;;;;;;;;;;;4.81;91.57;101539.38;5091270;28;19930;-58
2023/01/23 11:49:58;;;;;;;;;;;;;;;4.79;91.78;101539.34;5094564;28;19967;-58
2023/01/23 11:52:23;;;;;;;;;;;;;;;5.04;91.41;101522.97;5094903;28;19926;-59
2023/01/23 11:54:54;;;;;;;;;;;;;;;5.13;90.75;101527.50;5092469;28;19958;-58
2023/01/23 11:57:52;;;;;;;;;;;;;;;5.23;90.03;101519.75;5074461;28;20060;-58
2023/01/23 12:00:35;;;;;;;;;;;;;;;5.29;89.18;101511.91;5030771;28;19931;-58
2023/01/23 12:03:06;;;;;;;;;;;;;;;5.24;89.00;101504.78;5093968;28;20425;-58
2023/01/23 12:05:40;;;;;;;;;;;;;;;5.28;88.56;101510.13;5094218;28;20039;-59
2023/01/23 12:08:17;;;;;;;;;;;;;;;5.36;87.64;101504.94;5080161;28;19957;-59
2023/01/23 12:10:53;;;;;;;;;;;;;;;5.34;86.43;101504.94;5089561;28;20359;-59
2023/01/23 12:13:37;;;;;;;;;;;;;;;5.35;86.43;101500.53;5086663;28;20375;-59
2023/01/23 12:16:11;;;;;;;;;;;;;;;5.28;85.76;101499.59;5073804;28;19934;-59
2023/01/23 12:18:45;;;;;;;;;;;;;;;5.19;85.13;101504.72;5076566;28;20010;-59
2023/01/23 12:21:18;;;;;;;;;;;;;;;5.27;85.52;101492.50;5074049;28;19933;-59
2023/01/23 12:23:49;;;;;;;;;;;;;;;5.37;85.66;101482.94;5073139;28;20257;-59
2023/01/23 12:26:14;;;;;;;;;;;;;;;5.33;84.26;101479.41;5074014;28;20287;-59
2023/01/23 12:28:52;;;;;;;;;;;;;;;5.34;84.12;101473.25;5075512;28;19948;-59
2023/01/23 12:31:29;;;;;;;;;;;;;;;5.30;84.00;101468.81;5073154;28;19950;-58
2023/01/23 12:33:57;;;;;;;;;;;;;;;5.20;83.24;101474.88;5076342;28;19949;-59
2023/01/23 12:36:41;;;;;;;;;;;;;;;5.36;83.84;101478.56;5093431;28;19946;-59
2023/01/23 12:39:31;;;;;;;;;;;;;;;5.43;83.66;101472.50;5092762;28;20426;-59
2023/01/23 12:42:18;;;;;;;;;;;;;;;5.47;82.63;101476.06;5092391;28;20380;-59
2023/01/23 12:44:52;;;;;;;;;;;;;;;5.51;82.80;101472.56;5093841;28;19929;-59
2023/01/23 12:47:38;;;;;;;;;;;;;;;5.63;83.03;101464.78;5077717;28;19937;-59
2023/01/23 12:50:11;;;;;;;;;;;;;;;5.61;82.26;101474.44;5073463;28;20541;-59